Terminal Aerodrome Forecast
Issued by NWS

Home | Current Version | Previous Version | Text Only | Print | Product List | Glossary On
Versions: 1 2 3 4 5 6 7 8 9 10 11 12 13 14 15 16
880
FTUS45 KTFX 241729
TAFHVR
TAF
KHVR 241729Z 2418/2518 VRB04KT P6SM SCT040 BKN080
      TEMPO 2418/2421 SCT010 BKN015=

USA.gov is the U.S. government's official web portal to all federal, state and local government web resources and services.